Kivalina, AK

10:31 PM AKDT on September 19, 2017 (GMT -0800)
Kivalina

Weather History for PAVL - November, 2013

Change the Weather History Date:

Monday, November 11, 2013

  Actual Average (PAWN) Record (PAWN)
Temperature  
Mean Temperature 13 °F -  
Max Temperature 25 °F 13 °F 39 °F (2014)
Min Temperature 1 °F 2 °F -16 °F (2001)
Degree Days  
Heating Degree Days 52    
Moisture  
Dew Point 16 °F    
Average Humidity 78    
Maximum Humidity 93    
Minimum Humidity 60    
Precipitation  
Precipitation 0.07 in - - ()
Sea Level Pressure  
Sea Level Pressure 30.01 in    
Wind  
Wind Speed 25 mph (WNW)    
Max Wind Speed 33 mph    
Max Gust Speed 43 mph    
Visibility 3 miles    
Events Fog , Snow    
Averages and records for this station are not official NWS values.
T = Trace of Precipitation, MM = Missing Value Source: NWS Daily Summary

Daily Weather History Graph

Daily Weather History Graph

Search for Another Location

Airport or City:

Trip Planner

Search our weather history database for the weather conditions in past years. The results will help you decide how hot, cold, wet, or windy it might be!

Date:

Astronomy

Nov. 11, 2013 Rise Set
Actual Time 10:51 AM AKST 4:31 PM AKST
Civil Twilight 9:38 AM AKST 5:44 PM AKST
Nautical Twilight 8:28 AM AKST 6:55 PM AKST
Astronomical Twilight 7:23 AM AKST 7:59 PM AKST
Moon 3:51 PM AKST (11/11) 2:00 AM AKST (11/11)
Length of Visible Light 8h 06m
Length of Day
5h 40m
Waxing Gibbous, 68% of the Moon is Illuminated
Nov 11
Waxing Gibbous
Nov 17
Full
Nov 25
Last Quarter
Dec 2
New
Dec 9
First Quarter

Hourly Weather History & Observations

Time (AKST) Temp. Windchill Dew Point Humidity Pressure Visibility Wind Dir Wind Speed Gust Speed Precip Events Conditions
12:01 AM 24.8 °F 8.1 °F 19.4 °F 80% 29.73 in 0.8 mi WNW 28.8 mph 35.7 mph 0.00 in Snow Light Snow
12:12 AM 24.8 °F 9.0 °F 21.2 °F 86% 29.74 in 0.2 mi WNW 25.3 mph 33.4 mph 0.00 in Fog , Snow Snow
12:53 AM 24.1 °F 7.7 °F 21.9 °F 91% 29.77 in 0.2 mi West 26.5 mph 38.0 mph 0.02 in Fog , Snow Heavy Snow
1:20 AM 24.8 °F 7.6 °F 21.2 °F 86% 29.78 in 0.8 mi WNW 31.1 mph - 0.01 in Snow Light Snow
1:32 AM 24.8 °F 8.7 °F 19.4 °F 80% 29.80 in 1.2 mi WNW 26.5 mph 36.8 mph 0.01 in Snow Light Snow
1:53 AM 25.0 °F 7.6 °F 19.0 °F 78% 29.81 in 1.0 mi West 32.2 mph 38.0 mph 0.01 in Snow Light Snow
2:13 AM 24.8 °F 7.6 °F 19.4 °F 80% 29.83 in 0.8 mi West 31.1 mph 42.6 mph 0.00 in Snow Light Snow
2:21 AM 24.8 °F 7.1 °F 17.6 °F 74% 29.84 in 1.0 mi West 33.4 mph 42.6 mph 0.00 in Snow Light Snow
2:28 AM 24.8 °F 9.6 °F 17.6 °F 74% 29.84 in 0.8 mi West 23.0 mph 40.3 mph 0.00 in Snow Light Snow
2:31 AM 24.8 °F 9.0 °F 15.8 °F 69% 29.84 in 1.2 mi West 25.3 mph 36.8 mph 0.00 in Snow Light Snow
2:34 AM 24.8 °F 8.1 °F 15.8 °F 69% 29.84 in 4.0 mi West 28.8 mph 34.5 mph 0.00 in Snow Light Snow
2:49 AM 24.8 °F 8.7 °F 17.6 °F 74% 29.85 in 1.8 mi WNW 26.5 mph 36.8 mph 0.00 in Snow Light Snow
2:58 AM 24.8 °F 8.4 °F 17.6 °F 74% 29.85 in 3.0 mi WNW 27.6 mph - 0.00 in Snow Light Snow
3:17 AM 24.8 °F 7.9 °F 17.6 °F 74% 29.87 in 2.0 mi West 29.9 mph 38.0 mph 0.00 in Snow Light Snow
3:25 AM 23.0 °F 6.9 °F 17.6 °F 80% 29.88 in 1.5 mi West 24.2 mph 35.7 mph 0.00 in Snow Light Snow
3:33 AM 24.8 °F 8.7 °F 17.6 °F 74% 29.88 in 3.0 mi West 26.5 mph 32.2 mph 0.00 in Snow Light Snow
3:37 AM 24.8 °F 7.9 °F 19.4 °F 80% 29.89 in 1.2 mi West 29.9 mph 35.7 mph 0.00 in Snow Light Snow
3:44 AM 23.0 °F 6.0 °F 19.4 °F 86% 29.89 in 0.5 mi WNW 27.6 mph 35.7 mph 0.00 in Fog , Snow Snow
3:53 AM 24.1 °F 7.1 °F 19.0 °F 81% 29.89 in 0.8 mi WNW 28.8 mph 34.5 mph 0.00 in Snow Light Snow
4:25 AM 21.2 °F 4.5 °F 17.6 °F 86% 29.91 in 1.0 mi WNW 24.2 mph - 0.01 in Snow Light Snow
4:29 AM 23.0 °F 6.0 °F 17.6 °F 80% 29.91 in 3.0 mi WNW 27.6 mph 36.8 mph 0.01 in Snow Light Snow
4:38 AM 23.0 °F 6.9 °F 17.6 °F 80% 29.91 in 1.8 mi West 24.2 mph 36.8 mph 0.01 in Snow Light Snow
4:50 AM 21.2 °F 3.3 °F 17.6 °F 86% 29.92 in 0.5 mi West 28.8 mph 41.4 mph 0.01 in Fog , Snow Snow
4:53 AM 21.9 °F 4.2 °F 19.0 °F 89% 29.92 in 0.2 mi WNW 28.8 mph 34.5 mph 0.01 in Fog , Snow Snow
5:09 AM 21.2 °F 3.5 °F 19.4 °F 93% 29.93 in 0.2 mi West 27.6 mph 35.7 mph 0.01 in Fog , Snow Snow
5:24 AM 23.0 °F 5.7 °F 17.6 °F 80% 29.93 in 0.8 mi WNW 28.8 mph 35.7 mph 0.01 in Snow Light Snow
5:26 AM 23.0 °F 5.7 °F 15.8 °F 74% 29.93 in 1.5 mi West 28.8 mph 35.7 mph 0.01 in Snow Light Snow
5:33 AM 23.0 °F 5.7 °F 15.8 °F 74% 29.93 in 3.0 mi West 28.8 mph - 0.01 in Snow Blowing Snow
5:44 AM 23.0 °F 5.7 °F 14.0 °F 68% 29.93 in 6.0 mi West 28.8 mph 35.7 mph 0.01 in   Haze
5:53 AM 23.0 °F 6.6 °F 10.9 °F 60% 29.95 in 5.0 mi WNW 25.3 mph 38.0 mph 0.01 in Snow Blowing Snow
6:24 AM 21.2 °F 3.3 °F 14.0 °F 74% 29.96 in 2.0 mi West 28.8 mph 33.4 mph 0.00 in Snow Light Snow
6:33 AM 21.2 °F 3.9 °F 15.8 °F 80% 29.97 in 6.0 mi West 26.5 mph 33.4 mph 0.00 in   Haze
6:53 AM 21.9 °F 4.2 °F 12.0 °F 66% 29.97 in 6.0 mi WNW 28.8 mph 33.4 mph 0.00 in   Haze
6:56 AM 21.2 °F 2.7 °F 15.8 °F 80% 29.97 in 1.2 mi WNW 31.1 mph 38.0 mph 0.00 in Snow Light Snow
7:01 AM 21.2 °F 4.2 °F 17.6 °F 86% 29.98 in 0.5 mi WNW 25.3 mph 38.0 mph 0.00 in Fog , Snow Snow
7:19 AM 21.2 °F 4.5 °F 14.0 °F 74% 29.99 in 3.0 mi WNW 24.2 mph - 0.01 in Snow Light Snow
7:53 AM 23.0 °F 6.9 °F 14.0 °F 68% 30.01 in 6.0 mi WNW 24.2 mph 33.4 mph 0.01 in   Overcast
8:05 AM 21.2 °F 3.9 °F 15.8 °F 80% 30.01 in 2.0 mi WNW 26.5 mph 34.5 mph 0.00 in Snow Light Snow
8:23 AM 21.2 °F 4.2 °F 15.8 °F 80% 30.02 in 3.0 mi WNW 25.3 mph 33.4 mph 0.00 in   Overcast
8:35 AM 21.2 °F 4.5 °F 17.6 °F 86% 30.02 in 2.5 mi WNW 24.2 mph - 0.00 in Snow Light Snow
8:43 AM 21.2 °F 3.9 °F 12.2 °F 68% 30.02 in 5.0 mi West 26.5 mph 31.1 mph 0.00 in   Haze
8:51 AM 21.2 °F 3.5 °F 15.8 °F 80% 30.03 in 2.5 mi WNW 27.6 mph 31.1 mph 0.00 in Snow Light Snow
8:53 AM 21.9 °F 5.1 °F 16.0 °F 78% 30.03 in 3.0 mi NW 25.3 mph 31.1 mph 0.00 in Snow Light Snow
9:01 AM 21.2 °F 4.2 °F 15.8 °F 80% 30.03 in 2.5 mi WNW 25.3 mph - 0.00 in Snow Light Snow
9:04 AM 21.2 °F 5.6 °F 17.6 °F 86% 30.04 in 1.8 mi WNW 20.7 mph - 0.00 in Snow Light Snow
9:16 AM 23.0 °F 6.9 °F 15.8 °F 74% 30.03 in 3.0 mi WNW 24.2 mph 29.9 mph 0.00 in Snow Light Snow
9:19 AM 23.0 °F 6.3 °F 15.8 °F 74% 30.04 in 1.8 mi West 26.5 mph 32.2 mph 0.00 in Snow Light Snow
9:53 AM 21.9 °F 5.5 °F 19.0 °F 89% 30.06 in 0.8 mi West 24.2 mph 35.7 mph 0.00 in Snow Light Snow
10:11 AM 23.0 °F 6.0 °F 17.6 °F 80% 30.05 in 2.0 mi West 27.6 mph 34.5 mph 0.00 in Snow Light Snow
10:18 AM 23.0 °F 6.3 °F 15.8 °F 74% 30.05 in 5.0 mi West 26.5 mph 35.7 mph 0.00 in Snow Light Snow
10:34 AM 23.0 °F 5.7 °F 15.8 °F 74% 30.06 in 7.0 mi West 28.8 mph 38.0 mph 0.00 in   Mostly Cloudy
10:45 AM 23.0 °F 6.6 °F 15.8 °F 74% 30.07 in 1.8 mi West 25.3 mph 35.7 mph 0.00 in Snow Light Snow
10:50 AM 23.0 °F 5.7 °F 15.8 °F 74% 30.06 in 2.0 mi West 28.8 mph - 0.00 in Snow Light Snow
10:53 AM 23.0 °F 4.9 °F 12.9 °F 65% 30.06 in 2.5 mi West 32.2 mph 35.7 mph 0.00 in Snow Light Snow
11:00 AM 23.0 °F 6.3 °F 14.0 °F 68% 30.06 in 4.0 mi West 26.5 mph 35.7 mph 0.00 in   Haze
11:44 AM 23.0 °F 6.6 °F 15.8 °F 74% 30.08 in 2.5 mi West 25.3 mph 33.4 mph 0.00 in Snow Light Snow
11:53 AM 23.0 °F 6.6 °F 14.0 °F 68% 30.08 in 3.0 mi West 25.3 mph 32.2 mph 0.00 in Snow Light Snow
11:59 AM 23.0 °F 6.9 °F 15.8 °F 74% 30.09 in 1.2 mi West 24.2 mph - 0.00 in Snow Light Snow
12:06 PM 23.0 °F 6.0 °F 17.6 °F 80% 30.08 in 0.5 mi WSW 27.6 mph - 0.00 in Snow Snow
12:24 PM 23.0 °F 7.2 °F 17.6 °F 80% 30.09 in 2.5 mi WSW 23.0 mph 32.2 mph 0.00 in Snow Light Snow
12:38 PM 23.0 °F 6.6 °F 17.6 °F 80% 30.09 in 1.5 mi WSW 25.3 mph 29.9 mph 0.00 in Snow Light Snow
12:51 PM 23.0 °F 7.6 °F 17.6 °F 80% 30.09 in 2.5 mi WSW 21.9 mph 27.6 mph 0.00 in Snow Light Snow
12:53 PM 23.0 °F 7.2 °F 17.1 °F 78% 30.09 in 3.0 mi West 23.0 mph 27.6 mph 0.00 in Snow Light Snow
1:03 PM 23.0 °F 7.6 °F 17.6 °F 80% 30.10 in 1.8 mi West 21.9 mph - 0.00 in Snow Light Snow
1:19 PM 23.0 °F 8.7 °F 19.4 °F 86% 30.10 in 0.5 mi WSW 18.4 mph - 0.00 in Fog , Snow Light Snow
1:26 PM 23.0 °F 8.0 °F 17.6 °F 80% 30.10 in 2.0 mi West 20.7 mph - 0.00 in Snow Light Snow
1:43 PM 23.0 °F 8.3 °F 14.0 °F 68% 30.11 in 3.0 mi WSW 19.6 mph - 0.00 in Snow Light Snow
1:53 PM 23.0 °F 7.6 °F 15.1 °F 72% 30.11 in 4.0 mi West 21.9 mph - 0.00 in Snow Light Snow
2:03 PM 24.8 °F 10.7 °F 15.8 °F 69% 30.11 in 4.0 mi WSW 19.6 mph 27.6 mph 0.00 in Snow Light Snow
2:53 PM 23.0 °F 8.3 °F 12.9 °F 65% 30.11 in 6.0 mi West 19.6 mph - 0.00 in   Haze
3:53 PM 24.1 °F 9.4 °F 15.1 °F 69% 30.11 in 5.0 mi West 20.7 mph - N/A   Haze
4:11 PM 23.0 °F 9.2 °F 15.8 °F 74% 30.11 in 5.0 mi West 17.3 mph - 0.00 in   Haze
4:35 PM 23.0 °F 9.2 °F 15.8 °F 74% 30.11 in 2.5 mi West 17.3 mph - 0.00 in Snow Light Snow
4:42 PM 23.0 °F 11.7 °F 15.8 °F 74% 30.11 in 4.0 mi West 11.5 mph - 0.00 in Snow Light Snow
4:53 PM 23.0 °F 9.6 °F 12.9 °F 65% 30.12 in 6.0 mi West 16.1 mph - 0.00 in   Haze
5:53 PM 24.1 °F 12.5 °F 12.9 °F 62% 30.12 in 7.0 mi WSW 12.7 mph - N/A   Mostly Cloudy
6:49 PM 21.2 °F 12.6 °F 17.6 °F 86% 30.13 in 2.5 mi WNW 6.9 mph - 0.00 in Snow Light Snow
6:53 PM 21.9 °F 14.5 °F 18.0 °F 85% 30.13 in 2.5 mi NW 5.8 mph - 0.00 in Snow Light Snow
7:01 PM 21.2 °F 16.4 °F 17.6 °F 86% 30.12 in 3.0 mi Variable 3.5 mph - 0.00 in Snow Light Snow
7:08 PM 21.2 °F 16.4 °F 17.6 °F 86% 30.12 in 1.8 mi North 3.5 mph - 0.00 in Snow Light Snow
7:25 PM 19.4 °F 10.4 °F 17.6 °F 93% 30.12 in 3.0 mi ENE 6.9 mph - 0.00 in Snow Light Snow
7:47 PM 19.4 °F 12.8 °F 15.8 °F 86% 30.13 in 2.5 mi East 4.6 mph - 0.00 in Snow Light Snow
7:53 PM 19.0 °F 11.1 °F 16.0 °F 88% 30.13 in 1.0 mi East 5.8 mph - 0.00 in Snow Light Snow
7:55 PM 19.4 °F 10.4 °F 15.8 °F 86% 30.13 in 0.8 mi East 6.9 mph - 0.00 in Snow Light Snow
8:06 PM 17.6 °F 9.3 °F 15.8 °F 93% 30.13 in 1.0 mi East 5.8 mph - 0.01 in Snow Light Snow
8:11 PM 17.6 °F 9.3 °F 15.8 °F 93% 30.13 in 2.0 mi East 5.8 mph - 0.01 in Snow Light Snow
8:19 PM 15.8 °F 5.1 °F 12.2 °F 86% 30.13 in 5.0 mi East 8.1 mph - 0.01 in Snow Light Snow
8:49 PM 14.0 °F 3.9 °F 10.4 °F 86% 30.13 in 5.0 mi East 6.9 mph - 0.01 in Snow Light Snow
8:53 PM 12.9 °F 1.6 °F 10.0 °F 88% 30.13 in 5.0 mi East 8.1 mph - 0.01 in Snow Light Snow
9:53 PM 10.0 °F 0.4 °F 5.0 °F 80% 30.14 in 8.0 mi East 5.8 mph - 0.00 in   Overcast
10:53 PM 1.9 °F -11.8 °F -0.9 °F 88% 30.14 in 8.0 mi ENE 8.1 mph - N/A   Mostly Cloudy
11:53 PM 7.0 °F -4.5 °F 3.0 °F 84% 30.13 in 9.0 mi ENE 6.9 mph - N/A   Mostly Cloudy